Time;durP1;ratioP1;P1;durP2;ratioP2;P2;SDS_P1;SDS_P2;PMS_P1;PMS_P2;Temp;Humidity;BMP_temperature;BMP_pressure;BME280_temperature;BME280_humidity;BME280_pressure;Samples;Min_cycle;Max_cycle;Signal;HPM_P1;HPM_P2
2022/10/11 00:00:52;;;;;;;0.82;0.60;;;;;;;;;;5077837;28;20044;-82
2022/10/11 00:03:21;;;;;;;4.45;0.80;;;;;;;;;;5079624;28;20048;-83
2022/10/11 00:05:49;;;;;;;0.50;0.50;;;;;;;;;;5082669;28;20079;-82
2022/10/11 00:08:17;;;;;;;0.70;0.50;;;;;;;;;;5074019;28;20102;-82
2022/10/11 00:10:46;;;;;;;1.10;0.47;;;;;;;;;;5083786;28;20063;-82
2022/10/11 00:13:14;;;;;;;3.53;0.73;;;;;;;;;;5077506;28;20041;-83
2022/10/11 00:15:42;;;;;;;0.60;0.60;;;;;;;;;;5083347;28;20048;-82
2022/10/11 00:18:12;;;;;;;0.57;0.40;;;;;;;;;;5091960;28;20048;-82
2022/10/11 00:20:40;;;;;;;2.28;0.77;;;;;;;;;;5081578;28;20484;-82
2022/10/11 00:23:09;;;;;;;1.45;0.45;;;;;;;;;;5084873;28;20044;-82
2022/10/11 00:25:38;;;;;;;3.45;0.93;;;;;;;;;;5081183;28;20051;-83
2022/10/11 00:28:06;;;;;;;0.95;0.50;;;;;;;;;;5077742;28;20063;-83
2022/10/11 00:30:34;;;;;;;1.50;1.08;;;;;;;;;;5080894;28;20082;-82
2022/10/11 00:33:03;;;;;;;3.40;0.95;;;;;;;;;;5085305;28;20044;-82
2022/10/11 00:35:32;;;;;;;1.13;0.90;;;;;;;;;;5080429;28;20057;-83
2022/10/11 00:38:01;;;;;;;3.10;1.17;;;;;;;;;;5073842;28;20052;-82
2022/10/11 00:40:29;;;;;;;1.17;0.60;;;;;;;;;;5081166;28;20059;-82
2022/10/11 00:42:57;;;;;;;0.50;0.50;;;;;;;;;;5091454;28;20491;-83
2022/10/11 00:45:44;;;;;;;1.08;0.70;;;;;;;;;;5079129;28;20044;-82
2022/10/11 00:48:16;;;;;;;0.98;0.68;;;;;;;;;;5089711;28;20052;-82
2022/10/11 00:50:45;;;;;;;1.00;0.52;;;;;;;;;;5080219;28;20051;-83
2022/10/11 00:53:13;;;;;;;1.02;0.75;;;;;;;;;;5082148;28;20060;-83
2022/10/11 00:55:46;;;;;;;1.95;0.80;;;;;;;;;;5076773;28;20051;-82
2022/10/11 00:58:15;;;;;;;0.75;0.50;;;;;;;;;;5073963;28;20053;-82
2022/10/11 01:00:43;;;;;;;3.08;1.45;;;;;;;;;;5080439;28;20430;-82
2022/10/11 01:03:11;;;;;;;0.88;0.75;;;;;;;;;;5087755;28;20044;-83
2022/10/11 01:05:40;;;;;;;3.13;1.10;;;;;;;;;;5085730;28;20066;-83
2022/10/11 01:08:10;;;;;;;2.40;0.70;;;;;;;;;;5091881;28;20047;-83
2022/10/11 01:10:38;;;;;;;1.80;0.93;;;;;;;;;;5087875;28;20128;-82
2022/10/11 01:13:11;;;;;;;1.65;1.00;;;;;;;;;;5081337;28;20087;-82
2022/10/11 01:15:42;;;;;;;3.08;1.35;;;;;;;;;;5084082;28;20051;-82
2022/10/11 01:18:13;;;;;;;1.52;0.65;;;;;;;;;;5079392;28;20060;-83
2022/10/11 01:20:46;;;;;;;3.30;1.35;;;;;;;;;;5084217;28;20051;-83
2022/10/11 01:23:32;;;;;;;1.75;0.90;;;;;;;;;;5074249;28;20492;-83
2022/10/11 01:26:13;;;;;;;1.23;0.82;;;;;;;;;;5084416;28;20055;-83
2022/10/11 01:28:44;;;;;;;0.57;0.52;;;;;;;;;;5074278;28;20102;-83
2022/10/11 01:31:18;;;;;;;1.73;0.90;;;;;;;;;;5086689;28;20052;-83
2022/10/11 01:33:51;;;;;;;1.55;0.82;;;;;;;;;;5073111;28;20052;-82
2022/10/11 01:36:26;;;;;;;1.02;0.85;;;;;;;;;;5074561;28;20099;-83
2022/10/11 01:38:56;;;;;;;8.10;1.23;;;;;;;;;;5088205;28;20504;-82
2022/10/11 01:41:26;;;;;;;3.03;0.77;;;;;;;;;;5085229;28;20044;-82
2022/10/11 01:43:57;;;;;;;3.88;0.93;;;;;;;;;;5081932;28;20048;-82
2022/10/11 01:46:27;;;;;;;1.10;0.57;;;;;;;;;;5075546;28;20052;-82
2022/10/11 01:48:57;;;;;;;1.63;0.75;;;;;;;;;;5087050;28;20075;-82
2022/10/11 01:51:28;;;;;;;0.98;0.57;;;;;;;;;;5084083;28;20055;-83
2022/10/11 01:54:11;;;;;;;1.17;0.90;;;;;;;;;;5080936;28;20048;-82
2022/10/11 01:56:46;;;;;;;0.98;0.50;;;;;;;;;;5082479;28;20059;-82
2022/10/11 01:59:20;;;;;;;1.45;0.82;;;;;;;;;;5074136;28;20047;-82
2022/10/11 02:01:55;;;;;;;1.17;1.00;;;;;;;;;;5078123;28;20056;-82
2022/10/11 02:04:23;;;;;;;;;;;;;;;;;;5088801;28;20043;-82
2022/10/11 02:06:54;;;;;;;2.08;1.02;;;;;;;;;;5087994;28;19919;-82
2022/10/11 02:09:25;;;;;;;1.63;0.77;;;;;;;;;;5086029;28;20059;-82
2022/10/11 02:11:55;;;;;;;0.77;0.77;;;;;;;;;;5081482;28;20056;-82
2022/10/11 02:14:26;;;;;;;0.70;0.70;;;;;;;;;;5080651;28;20047;-82
2022/10/11 02:17:00;;;;;;;0.55;0.55;;;;;;;;;;5073357;28;20049;-82
2022/10/11 02:19:31;;;;;;;1.40;0.70;;;;;;;;;;5079346;28;20056;-82
2022/10/11 02:22:01;;;;;;;2.90;1.30;;;;;;;;;;5077003;28;20543;-82
2022/10/11 02:24:32;;;;;;;0.77;0.70;;;;;;;;;;5087606;28;20052;-82
2022/10/11 02:27:02;;;;;;;2.90;0.73;;;;;;;;;;5074421;28;20067;-82
2022/10/11 02:29:33;;;;;;;1.17;0.82;;;;;;;;;;5083537;28;20423;-82
2022/10/11 02:32:02;;;;;;;0.60;0.60;;;;;;;;;;5082988;28;20044;-82
2022/10/11 02:34:32;;;;;;;1.05;0.60;;;;;;;;;;5075620;28;20052;-82
2022/10/11 02:37:04;;;;;;;0.82;0.70;;;;;;;;;;5076246;28;20177;-82
2022/10/11 02:39:36;;;;;;;1.67;0.63;;;;;;;;;;5083344;28;20036;-82
2022/10/11 02:42:07;;;;;;;7.50;0.70;;;;;;;;;;5080402;28;20048;-82
2022/10/11 02:44:37;;;;;;;3.13;1.08;;;;;;;;;;5084155;28;20049;-83
2022/10/11 02:47:08;;;;;;;1.33;0.80;;;;;;;;;;5089449;28;20127;-82
2022/10/11 02:49:36;;;;;;;1.75;0.88;;;;;;;;;;5081850;28;20052;-83
2022/10/11 02:52:06;;;;;;;1.35;0.93;;;;;;;;;;5086930;28;20527;-82
2022/10/11 02:54:34;;;;;;;5.18;1.05;;;;;;;;;;5082909;28;20044;-82
2022/10/11 02:57:02;;;;;;;0.50;0.50;;;;;;;;;;5076985;28;20044;-82
2022/10/11 02:59:31;;;;;;;3.00;1.13;;;;;;;;;;5074536;28;20075;-83
2022/10/11 03:01:59;;;;;;;0.60;0.60;;;;;;;;;;5079100;28;20059;-82
2022/10/11 03:04:29;;;;;;;1.13;0.75;;;;;;;;;;5078185;28;20056;-82
2022/10/11 03:06:57;;;;;;;2.15;0.90;;;;;;;;;;5086499;28;20101;-82
2022/10/11 03:09:26;;;;;;;1.48;0.50;;;;;;;;;;5075120;28;20056;-83
2022/10/11 03:11:54;;;;;;;6.10;0.90;;;;;;;;;;5082612;28;20036;-82
2022/10/11 03:14:22;;;;;;;2.17;0.98;;;;;;;;;;5073141;28;20056;-83
2022/10/11 03:16:50;;;;;;;1.45;0.57;;;;;;;;;;5074267;28;20056;-83
2022/10/11 03:19:19;;;;;;;1.00;0.70;;;;;;;;;;5078739;28;20044;-83
2022/10/11 03:21:48;;;;;;;2.40;0.75;;;;;;;;;;5081239;28;20064;-82
2022/10/11 03:24:17;;;;;;;1.25;0.55;;;;;;;;;;5072850;28;20052;-83
2022/10/11 03:26:45;;;;;;;1.83;1.20;;;;;;;;;;5083478;28;20043;-83
2022/10/11 03:29:13;;;;;;;7.80;0.80;;;;;;;;;;5082421;28;20121;-83
2022/10/11 03:31:41;;;;;;;1.35;0.52;;;;;;;;;;5081371;28;20059;-83
2022/10/11 03:34:10;;;;;;;1.77;1.05;;;;;;;;;;5072189;28;20131;-83
2022/10/11 03:36:38;;;;;;;1.00;0.60;;;;;;;;;;5085775;28;20052;-83
2022/10/11 03:39:08;;;;;;;1.27;0.55;;;;;;;;;;5071097;28;20049;-82
2022/10/11 03:41:36;;;;;;;2.72;0.75;;;;;;;;;;5076679;28;20409;-82
2022/10/11 03:44:04;;;;;;;2.05;0.90;;;;;;;;;;5072182;28;20064;-83
2022/10/11 03:46:33;;;;;;;2.60;1.08;;;;;;;;;;5078050;28;20044;-82
2022/10/11 03:49:01;;;;;;;0.55;0.32;;;;;;;;;;5089763;28;20070;-83
2022/10/11 03:51:30;;;;;;;0.65;0.65;;;;;;;;;;5083819;28;20048;-82
2022/10/11 03:53:58;;;;;;;1.58;0.88;;;;;;;;;;5084248;28;20044;-82
2022/10/11 03:56:28;;;;;;;2.00;0.98;;;;;;;;;;5081376;28;20049;-83
2022/10/11 03:58:56;;;;;;;1.85;0.85;;;;;;;;;;5080635;28;20048;-83
2022/10/11 04:01:24;;;;;;;1.65;0.95;;;;;;;;;;5084415;28;20491;-82
2022/10/11 04:03:55;;;;;;;0.80;0.40;;;;;;;;;;5086408;28;20056;-83
2022/10/11 04:06:23;;;;;;;1.58;1.08;;;;;;;;;;5086999;28;20062;-82
2022/10/11 04:08:51;;;;;;;0.77;0.77;;;;;;;;;;5077256;28;20052;-83
2022/10/11 04:11:20;;;;;;;1.35;0.82;;;;;;;;;;5078258;28;20524;-82
2022/10/11 04:13:49;;;;;;;1.00;0.60;;;;;;;;;;5089240;28;20078;-82
2022/10/11 04:16:17;;;;;;;1.48;1.10;;;;;;;;;;5081883;28;20052;-83
2022/10/11 04:18:46;;;;;;;0.47;0.47;;;;;;;;;;5086954;28;20090;-83
2022/10/11 04:21:14;;;;;;;1.45;0.82;;;;;;;;;;5081197;28;20060;-83
2022/10/11 04:23:42;;;;;;;3.00;1.10;;;;;;;;;;5082657;28;20511;-82
2022/10/11 04:26:10;;;;;;;0.98;0.60;;;;;;;;;;5081343;28;20047;-82
2022/10/11 04:28:39;;;;;;;0.52;0.52;;;;;;;;;;5081931;28;20520;-81
2022/10/11 04:31:08;;;;;;;4.07;1.25;;;;;;;;;;5086239;28;20059;-83
2022/10/11 04:33:38;;;;;;;2.30;1.05;;;;;;;;;;5086264;28;20139;-83
2022/10/11 04:36:06;;;;;;;1.42;0.88;;;;;;;;;;5084237;28;20052;-82
2022/10/11 04:38:35;;;;;;;0.73;0.52;;;;;;;;;;5087235;28;20040;-83
2022/10/11 04:41:07;;;;;;;7.95;1.00;;;;;;;;;;5077369;28;20056;-82
2022/10/11 04:43:35;;;;;;;3.05;0.77;;;;;;;;;;5083233;28;20040;-83
2022/10/11 04:46:04;;;;;;;0.98;0.55;;;;;;;;;;5078888;28;20044;-85
2022/10/11 04:48:35;;;;;;;3.10;0.65;;;;;;;;;;5081985;28;20044;-84
2022/10/11 04:51:03;;;;;;;1.45;0.65;;;;;;;;;;5077683;28;20400;-85
2022/10/11 04:53:31;;;;;;;4.28;0.63;;;;;;;;;;5075714;28;20054;-84
2022/10/11 04:56:00;;;;;;;0.85;0.60;;;;;;;;;;5086066;28;20055;-85
2022/10/11 04:58:29;;;;;;;3.35;1.02;;;;;;;;;;5081743;28;20385;-84
2022/10/11 05:00:57;;;;;;;1.08;0.50;;;;;;;;;;5075033;28;20043;-83
2022/10/11 05:03:26;;;;;;;0.93;0.65;;;;;;;;;;5086523;28;20052;-85
2022/10/11 05:05:55;;;;;;;1.70;0.63;;;;;;;;;;5087288;28;20048;-84
2022/10/11 05:08:24;;;;;;;1.10;0.73;;;;;;;;;;5084309;28;20048;-85
2022/10/11 05:10:56;;;;;;;1.33;0.60;;;;;;;;;;5084885;28;20492;-84
2022/10/11 05:13:25;;;;;;;1.05;0.73;;;;;;;;;;5090376;28;20040;-87
2022/10/11 05:15:53;;;;;;;0.70;0.63;;;;;;;;;;5079980;28;20052;-84
2022/10/11 05:18:22;;;;;;;0.50;0.38;;;;;;;;;;5076250;28;20044;-85
2022/10/11 05:20:50;;;;;;;0.65;0.65;;;;;;;;;;5080041;28;20510;-86
2022/10/11 05:23:20;;;;;;;0.80;0.75;;;;;;;;;;5072414;28;20055;-85
2022/10/11 05:25:48;;;;;;;2.60;0.82;;;;;;;;;;5074755;28;20049;-85
2022/10/11 05:28:16;;;;;;;0.63;0.50;;;;;;;;;;5079183;28;20040;-85
2022/10/11 05:30:45;;;;;;;0.75;0.50;;;;;;;;;;5077077;28;20341;-84
2022/10/11 05:33:13;;;;;;;1.85;0.65;;;;;;;;;;5083026;28;20563;-84
2022/10/11 05:35:41;;;;;;;1.25;0.80;;;;;;;;;;5075414;28;20113;-85
2022/10/11 05:38:10;;;;;;;0.80;0.45;;;;;;;;;;5079705;28;20044;-84
2022/10/11 05:40:39;;;;;;;1.30;0.82;;;;;;;;;;5077842;28;20526;-84
2022/10/11 05:43:08;;;;;;;1.65;0.88;;;;;;;;;;5076365;28;20048;-85
2022/10/11 05:45:36;;;;;;;0.80;0.70;;;;;;;;;;5080809;28;20055;-84
2022/10/11 05:48:05;;;;;;;2.42;0.95;;;;;;;;;;5078324;28;20593;-84
2022/10/11 05:50:33;;;;;;;0.30;0.30;;;;;;;;;;5082591;28;20531;-84
2022/10/11 05:53:01;;;;;;;4.43;1.30;;;;;;;;;;5086815;28;20433;-85
2022/10/11 05:55:30;;;;;;;1.60;0.80;;;;;;;;;;5083145;28;20511;-84
2022/10/11 05:57:59;;;;;;;1.48;0.80;;;;;;;;;;5074591;28;20055;-85
2022/10/11 06:00:27;;;;;;;0.88;0.82;;;;;;;;;;5079866;28;20577;-84
2022/10/11 06:02:56;;;;;;;3.45;0.50;;;;;;;;;;5090241;28;20075;-84
2022/10/11 06:05:25;;;;;;;1.02;0.60;;;;;;;;;;5081337;28;20092;-85
2022/10/11 06:07:53;;;;;;;0.88;0.50;;;;;;;;;;5081573;28;20055;-85
2022/10/11 06:10:21;;;;;;;0.70;0.45;;;;;;;;;;5083644;28;20058;-85
2022/10/11 06:12:49;;;;;;;1.27;0.80;;;;;;;;;;5077202;28;20053;-84
2022/10/11 06:15:19;;;;;;;2.03;0.73;;;;;;;;;;5085405;28;20052;-84
2022/10/11 06:17:48;;;;;;;2.33;0.65;;;;;;;;;;5086848;28;20055;-84
2022/10/11 06:20:16;;;;;;;2.22;0.70;;;;;;;;;;5082644;28;20150;-84
2022/10/11 06:22:44;;;;;;;0.55;0.52;;;;;;;;;;5083719;28;20051;-84
2022/10/11 06:25:13;;;;;;;0.88;0.60;;;;;;;;;;5082561;28;20126;-83
2022/10/11 06:27:41;;;;;;;1.33;0.88;;;;;;;;;;5085697;28;20051;-84
2022/10/11 06:30:10;;;;;;;8.30;0.70;;;;;;;;;;5085221;28;20047;-83
2022/10/11 06:32:39;;;;;;;7.47;0.40;;;;;;;;;;5087513;28;20048;-84
2022/10/11 06:35:08;;;;;;;3.28;0.50;;;;;;;;;;5082720;28;20048;-85
2022/10/11 06:37:36;;;;;;;2.33;0.85;;;;;;;;;;5081497;28;20408;-85
2022/10/11 06:40:05;;;;;;;3.83;0.88;;;;;;;;;;5088945;28;20055;-86
2022/10/11 06:42:33;;;;;;;0.90;0.60;;;;;;;;;;5088323;28;20044;-85
2022/10/11 06:45:02;;;;;;;4.60;0.65;;;;;;;;;;5083802;28;20067;-84
2022/10/11 06:47:30;;;;;;;1.65;0.90;;;;;;;;;;5077960;28;20131;-85
2022/10/11 06:50:00;;;;;;;0.47;0.47;;;;;;;;;;5088706;28;20040;-85
2022/10/11 06:52:28;;;;;;;3.10;0.75;;;;;;;;;;5085425;28;20068;-85
2022/10/11 06:54:56;;;;;;;0.60;0.40;;;;;;;;;;5079889;28;20487;-84
2022/10/11 06:57:25;;;;;;;0.50;0.50;;;;;;;;;;5077687;28;20095;-84
2022/10/11 06:59:53;;;;;;;2.13;0.63;;;;;;;;;;5082370;28;20043;-84
2022/10/11 07:02:21;;;;;;;0.82;0.70;;;;;;;;;;5088533;28;20055;-84
2022/10/11 07:04:50;;;;;;;4.40;0.95;;;;;;;;;;5078753;28;20052;-85
2022/10/11 07:07:19;;;;;;;2.15;0.65;;;;;;;;;;5087402;28;20055;-84
2022/10/11 07:09:48;;;;;;;0.65;0.65;;;;;;;;;;5086275;28;20487;-84
2022/10/11 07:12:16;;;;;;;0.85;0.65;;;;;;;;;;5082476;28;20048;-84
2022/10/11 07:14:44;;;;;;;1.02;0.55;;;;;;;;;;5086021;28;20044;-85
2022/10/11 07:17:13;;;;;;;3.08;0.95;;;;;;;;;;5077085;28;20048;-85
2022/10/11 07:19:41;;;;;;;2.55;0.82;;;;;;;;;;5069745;28;20079;-85
2022/10/11 07:22:09;;;;;;;2.78;0.80;;;;;;;;;;5081576;28;20057;-83
2022/10/11 07:24:39;;;;;;;4.40;0.98;;;;;;;;;;5077574;28;20049;-83
2022/10/11 07:27:07;;;;;;;0.35;0.35;;;;;;;;;;5082381;28;20048;-83
2022/10/11 07:29:36;;;;;;;1.63;0.80;;;;;;;;;;5082555;28;20049;-82
2022/10/11 07:32:04;;;;;;;0.85;0.75;;;;;;;;;;5077946;28;20055;-83
2022/10/11 07:34:33;;;;;;;1.80;1.02;;;;;;;;;;5079536;28;20055;-83
2022/10/11 07:37:01;;;;;;;2.13;0.80;;;;;;;;;;5081075;28;20040;-83
2022/10/11 07:39:30;;;;;;;2.00;1.02;;;;;;;;;;5081961;28;20444;-83
2022/10/11 07:42:00;;;;;;;2.88;1.15;;;;;;;;;;5077405;28;20059;-83
2022/10/11 07:44:29;;;;;;;0.50;0.45;;;;;;;;;;5073504;28;20051;-82
2022/10/11 07:46:57;;;;;;;0.75;0.63;;;;;;;;;;5081669;28;20488;-83
2022/10/11 07:49:26;;;;;;;1.13;0.85;;;;;;;;;;5079409;28;20481;-83
2022/10/11 07:51:54;;;;;;;5.47;1.52;;;;;;;;;;5084873;28;20049;-83
2022/10/11 07:54:22;;;;;;;1.25;1.02;;;;;;;;;;5079528;28;20059;-84
2022/10/11 07:56:51;;;;;;;2.55;0.95;;;;;;;;;;5075287;28;20059;-84
2022/10/11 07:59:21;;;;;;;3.42;1.02;;;;;;;;;;5080528;28;20438;-84
2022/10/11 08:01:49;;;;;;;2.40;1.63;;;;;;;;;;5079365;28;20052;-84
2022/10/11 08:04:20;;;;;;;2.75;0.80;;;;;;;;;;5085708;28;20048;-84
2022/10/11 08:06:48;;;;;;;3.50;0.98;;;;;;;;;;5080482;28;20508;-84
2022/10/11 08:09:20;;;;;;;1.27;0.95;;;;;;;;;;5083291;28;20484;-83
2022/10/11 08:11:49;;;;;;;1.42;1.02;;;;;;;;;;5080743;28;20131;-83
2022/10/11 08:14:17;;;;;;;2.05;1.13;;;;;;;;;;5081414;28;20546;-83
2022/10/11 08:16:47;;;;;;;1.60;0.80;;;;;;;;;;5077093;28;20087;-84
2022/10/11 08:19:17;;;;;;;8.40;0.95;;;;;;;;;;5082316;28;20499;-84
2022/10/11 08:21:45;;;;;;;2.85;1.38;;;;;;;;;;5078490;28;20055;-83
2022/10/11 08:24:15;;;;;;;2.40;1.13;;;;;;;;;;5083666;28;20448;-83
2022/10/11 08:26:43;;;;;;;5.60;1.48;;;;;;;;;;5078426;28;20075;-83
2022/10/11 08:29:13;;;;;;;0.93;0.63;;;;;;;;;;5074597;28;20096;-85
2022/10/11 08:31:43;;;;;;;1.65;0.73;;;;;;;;;;5077248;28;20060;-84
2022/10/11 08:34:15;;;;;;;3.05;0.80;;;;;;;;;;5091647;28;20052;-83
2022/10/11 08:36:44;;;;;;;1.23;1.08;;;;;;;;;;5076632;28;20045;-83
2022/10/11 08:39:12;;;;;;;1.58;0.77;;;;;;;;;;5077441;28;20071;-85
2022/10/11 08:41:42;;;;;;;8.15;1.05;;;;;;;;;;5079223;28;20044;-83
2022/10/11 08:44:27;;;;;;;1.23;0.93;;;;;;;;;;5081131;28;20040;-83
2022/10/11 08:47:21;;;;;;;3.85;0.95;;;;;;;;;;5076969;28;20576;-83
2022/10/11 08:49:51;;;;;;;1.65;0.70;;;;;;;;;;5080692;28;20044;-83
2022/10/11 08:52:21;;;;;;;0.85;0.50;;;;;;;;;;5083329;28;20097;-83
2022/10/11 08:54:52;;;;;;;1.20;0.80;;;;;;;;;;5079028;28;20495;-84
2022/10/11 08:57:22;;;;;;;1.95;0.80;;;;;;;;;;5078499;28;20508;-84
2022/10/11 08:59:52;;;;;;;3.13;1.08;;;;;;;;;;5078756;28;20045;-83
2022/10/11 09:02:26;;;;;;;1.70;1.13;;;;;;;;;;5083292;28;20067;-84
2022/10/11 09:05:18;;;;;;;1.60;0.60;;;;;;;;;;5078410;28;20648;-83
2022/10/11 09:07:52;;;;;;;1.70;0.93;;;;;;;;;;5083636;28;20086;-83
2022/10/11 09:10:41;;;;;;;1.70;0.55;;;;;;;;;;5073623;28;20064;-84
2022/10/11 09:13:16;;;;;;;2.55;0.80;;;;;;;;;;5075428;28;20522;-84
2022/10/11 09:15:49;;;;;;;1.42;0.88;;;;;;;;;;5083813;28;20488;-83
2022/10/11 09:18:35;;;;;;;2.28;0.52;;;;;;;;;;5078530;28;20102;-84
2022/10/11 09:21:12;;;;;;;4.18;1.10;;;;;;;;;;5071148;28;20136;-83
2022/10/11 09:23:52;;;;;;;1.45;0.90;;;;;;;;;;5077918;28;20523;-83
2022/10/11 09:26:23;;;;;;;2.65;0.90;;;;;;;;;;5084481;28;20048;-83
2022/10/11 09:28:56;;;;;;;1.63;0.60;;;;;;;;;;5084128;28;20467;-83
2022/10/11 09:31:28;;;;;;;1.27;0.80;;;;;;;;;;5080805;28;20055;-83
2022/10/11 09:33:59;;;;;;;4.32;2.00;;;;;;;;;;5081035;28;20044;-84
2022/10/11 09:36:31;;;;;;;2.78;0.95;;;;;;;;;;5073194;28;20048;-84
2022/10/11 09:39:02;;;;;;;2.08;0.77;;;;;;;;;;5075022;28;20400;-83
2022/10/11 09:41:36;;;;;;;8.03;1.47;;;;;;;;;;5080687;28;20590;-82
2022/10/11 09:44:07;;;;;;;2.85;1.00;;;;;;;;;;5083804;28;20044;-84
2022/10/11 09:46:37;;;;;;;1.20;0.55;;;;;;;;;;5075885;28;20043;-84
2022/10/11 09:49:08;;;;;;;11.20;1.27;;;;;;;;;;5077248;28;20056;-84
2022/10/11 09:51:38;;;;;;;1.17;0.90;;;;;;;;;;5071971;28;20055;-83
2022/10/11 09:54:09;;;;;;;5.15;0.93;;;;;;;;;;5089559;28;20040;-84
2022/10/11 09:56:41;;;;;;;1.75;0.80;;;;;;;;;;5080701;28;20485;-84
2022/10/11 09:59:21;;;;;;;0.85;0.70;;;;;;;;;;5081111;28;20798;-84
2022/10/11 10:01:50;;;;;;;7.78;0.90;;;;;;;;;;5068595;28;20067;-84
2022/10/11 10:04:18;;;;;;;4.85;1.15;;;;;;;;;;5087488;28;20094;-84
2022/10/11 10:06:48;;;;;;;2.40;0.93;;;;;;;;;;5075606;28;20468;-84
2022/10/11 10:09:21;;;;;;;4.30;0.65;;;;;;;;;;5086479;28;20047;-84
2022/10/11 10:11:49;;;;;;;1.55;1.08;;;;;;;;;;5076118;28;20050;-85
2022/10/11 10:14:20;;;;;;;1.42;0.88;;;;;;;;;;5081001;28;20386;-84
2022/10/11 10:16:49;;;;;;;1.45;0.70;;;;;;;;;;5074465;28;20044;-84
2022/10/11 10:19:20;;;;;;;2.05;1.25;;;;;;;;;;5081651;28;20044;-85
2022/10/11 10:21:50;;;;;;;1.55;1.13;;;;;;;;;;5078057;28;20056;-86
2022/10/11 10:24:19;;;;;;;1.92;1.08;;;;;;;;;;5078559;28;20106;-85
2022/10/11 10:27:03;;;;;;;5.10;0.80;;;;;;;;;;5075526;28;20056;-87
2022/10/11 10:29:31;;;;;;;1.48;1.10;;;;;;;;;;5078960;28;20046;-84
2022/10/11 10:32:03;;;;;;;5.68;0.70;;;;;;;;;;5080085;28;20430;-85
2022/10/11 10:34:53;;;;;;;1.02;0.65;;;;;;;;;;5085389;28;20047;-83
2022/10/11 10:37:26;;;;;;;2.50;1.88;;;;;;;;;;5075240;28;20554;-86
2022/10/11 10:39:57;;;;;;;4.53;1.00;;;;;;;;;;5082096;28;20051;-86
2022/10/11 10:42:25;;;;;;;1.52;0.80;;;;;;;;;;5082465;28;20041;-85
2022/10/11 10:44:55;;;;;;;2.08;0.77;;;;;;;;;;5080401;28;20082;-85
2022/10/11 10:47:29;;;;;;;1.50;0.93;;;;;;;;;;5074813;28;20048;-84
2022/10/11 10:50:01;;;;;;;1.15;0.70;;;;;;;;;;5083010;28;20066;-85
2022/10/11 10:52:46;;;;;;;1.80;0.60;;;;;;;;;;5076775;28;20074;-85
2022/10/11 10:55:20;;;;;;;0.93;0.47;;;;;;;;;;5073129;28;20080;-85
2022/10/11 10:57:53;;;;;;;0.90;0.60;;;;;;;;;;5078439;28;20048;-86
2022/10/11 11:00:23;;;;;;;9.30;0.75;;;;;;;;;;5079442;28;20119;-85
2022/10/11 11:02:55;;;;;;;1.83;1.08;;;;;;;;;;5077587;28;20161;-85
2022/10/11 11:05:26;;;;;;;0.52;0.45;;;;;;;;;;5084604;28;20117;-85
2022/10/11 11:07:59;;;;;;;2.75;1.13;;;;;;;;;;5079002;28;20055;-85
2022/10/11 11:10:31;;;;;;;1.52;0.88;;;;;;;;;;5086864;28;20075;-84
2022/10/11 11:13:06;;;;;;;2.15;0.77;;;;;;;;;;5072071;28;20044;-85
2022/10/11 11:15:38;;;;;;;4.68;1.08;;;;;;;;;;5077210;28;20063;-83
2022/10/11 11:18:16;;;;;;;2.13;0.60;;;;;;;;;;5072983;28;20075;-84
2022/10/11 11:20:51;;;;;;;2.85;0.68;;;;;;;;;;5086503;28;20047;-84
2022/10/11 11:23:26;;;;;;;4.60;1.10;;;;;;;;;;5077045;28;20037;-85
2022/10/11 11:26:01;;;;;;;2.55;0.90;;;;;;;;;;5072165;28;20049;-84
2022/10/11 11:28:49;;;;;;;3.08;1.05;;;;;;;;;;5074585;28;20147;-84
2022/10/11 11:31:28;;;;;;;3.70;1.25;;;;;;;;;;5073536;28;20546;-83
2022/10/11 11:34:01;;;;;;;2.25;0.88;;;;;;;;;;5080853;28;20454;-85
2022/10/11 11:36:35;;;;;;;1.65;1.00;;;;;;;;;;5080806;28;20048;-83
2022/10/11 11:39:06;;;;;;;4.53;1.67;;;;;;;;;;5089579;28;20047;-84
2022/10/11 11:41:38;;;;;;;1.95;1.00;;;;;;;;;;5084686;28;20044;-83
2022/10/11 11:44:11;;;;;;;1.08;0.73;;;;;;;;;;5076325;28;20052;-85
2022/10/11 11:46:42;;;;;;;1.00;0.75;;;;;;;;;;5081455;28;21764;-86
2022/10/11 11:49:14;;;;;;;1.45;1.05;;;;;;;;;;5079363;28;20052;-87
2022/10/11 11:51:44;;;;;;;2.33;0.93;;;;;;;;;;5071140;28;20060;-86
2022/10/11 11:54:21;;;;;;;1.10;1.00;;;;;;;;;;5075872;28;20047;-86
2022/10/11 11:56:52;;;;;;;2.25;1.20;;;;;;;;;;5079015;28;20408;-86
2022/10/11 11:59:24;;;;;;;0.93;0.50;;;;;;;;;;5080964;28;20151;-87
2022/10/11 12:02:28;;;;;;;0.98;0.90;;;;;;;;;;5076729;28;20060;-87
2022/10/11 12:04:57;;;;;;;3.95;0.60;;;;;;;;;;5078647;28;20067;-87
2022/10/11 12:07:27;;;;;;;1.48;1.08;;;;;;;;;;5076128;28;20480;-87
2022/10/11 12:10:14;;;;;;;1.05;0.80;;;;;;;;;;5082081;28;20036;-87
2022/10/11 12:12:44;;;;;;;1.65;0.68;;;;;;;;;;5080215;28;20049;-85
2022/10/11 12:15:18;;;;;;;3.45;0.60;;;;;;;;;;5076581;28;20139;-85
2022/10/11 12:18:01;;;;;;;1.20;0.68;;;;;;;;;;5083650;28;20135;-85
2022/10/11 12:20:31;;;;;;;4.05;1.48;;;;;;;;;;5083316;28;20055;-84
2022/10/11 12:23:00;;;;;;;0.70;0.45;;;;;;;;;;5076560;28;20123;-87
2022/10/11 12:25:34;;;;;;;1.95;0.85;;;;;;;;;;5075431;28;20048;-87
2022/10/11 12:28:24;;;;;;;2.25;0.93;;;;;;;;;;5078394;28;20672;-86
2022/10/11 12:30:53;;;;;;;2.17;0.85;;;;;;;;;;5078967;28;20093;-86
2022/10/11 12:33:23;;;;;;;1.25;0.80;;;;;;;;;;5078850;28;20044;-86
2022/10/11 12:36:01;;;;;;;4.47;1.25;;;;;;;;;;5084309;28;20062;-86
2022/10/11 12:38:38;;;;;;;1.00;0.63;;;;;;;;;;5079702;28;20052;-86
2022/10/11 12:41:25;;;;;;;3.50;1.30;;;;;;;;;;5081095;28;20057;-85
2022/10/11 12:44:14;;;;;;;1.38;0.70;;;;;;;;;;5077915;28;20166;-86
2022/10/11 12:46:58;;;;;;;7.72;1.30;;;;;;;;;;5080192;28;20043;-86
2022/10/11 12:49:31;;;;;;;1.98;0.90;;;;;;;;;;5077136;28;20420;-86
2022/10/11 12:52:00;;;;;;;3.60;1.00;;;;;;;;;;5077248;28;20139;-86
2022/10/11 12:54:37;;;;;;;1.20;0.73;;;;;;;;;;5080135;28;20044;-85
2022/10/11 12:57:19;;;;;;;2.10;1.08;;;;;;;;;;5076944;28;20155;-86
2022/10/11 12:59:50;;;;;;;2.47;1.30;;;;;;;;;;5076799;28;20054;-86
2022/10/11 13:02:24;;;;;;;4.93;0.90;;;;;;;;;;5080063;28;20048;-86
2022/10/11 13:05:05;;;;;;;1.05;0.77;;;;;;;;;;5074400;28;20094;-86
2022/10/11 13:07:35;;;;;;;5.60;0.80;;;;;;;;;;5080028;28;20819;-86
2022/10/11 13:10:05;;;;;;;1.55;0.80;;;;;;;;;;5077469;28;20040;-86
2022/10/11 13:12:37;;;;;;;0.70;0.70;;;;;;;;;;5084185;28;20048;-86
2022/10/11 13:15:10;;;;;;;1.30;0.57;;;;;;;;;;5080157;28;20395;-87
2022/10/11 13:17:40;;;;;;;1.45;0.80;;;;;;;;;;5081291;28;20044;-87
2022/10/11 13:20:13;;;;;;;1.63;0.60;;;;;;;;;;5079329;28;20056;-87
2022/10/11 13:22:44;;;;;;;4.15;1.20;;;;;;;;;;5077784;28;20090;-86
2022/10/11 13:25:16;;;;;;;3.63;1.52;;;;;;;;;;5077567;28;20046;-86
2022/10/11 13:27:45;;;;;;;1.20;0.77;;;;;;;;;;5077842;28;20071;-87
2022/10/11 13:30:17;;;;;;;2.40;1.63;;;;;;;;;;5075839;28;20063;-87
2022/10/11 13:32:46;;;;;;;2.13;0.85;;;;;;;;;;5073048;28;20135;-86
2022/10/11 13:35:17;;;;;;;0.90;0.88;;;;;;;;;;5076049;28;20061;-84
2022/10/11 13:37:51;;;;;;;5.30;0.88;;;;;;;;;;5080632;28;20054;-87
2022/10/11 13:40:21;;;;;;;0.70;0.60;;;;;;;;;;5081227;28;20048;-88
2022/10/11 13:42:50;;;;;;;0.68;0.57;;;;;;;;;;5080063;28;20094;-90
2022/10/11 13:45:21;;;;;;;6.43;1.67;;;;;;;;;;5086747;28;20050;-88
2022/10/11 13:47:50;;;;;;;10.10;1.10;;;;;;;;;;5083321;28;20134;-84
2022/10/11 13:50:29;;;;;;;4.32;1.30;;;;;;;;;;5085335;28;20058;-84
2022/10/11 13:52:58;;;;;;;2.35;1.60;;;;;;;;;;5077540;28;20044;-84
2022/10/11 13:55:29;;;;;;;2.88;1.58;;;;;;;;;;5073191;28;20457;-84
2022/10/11 13:57:59;;;;;;;5.70;1.95;;;;;;;;;;5081485;28;20059;-84
2022/10/11 14:00:34;;;;;;;6.78;2.25;;;;;;;;;;5076718;28;20524;-84
2022/10/11 14:03:04;;;;;;;8.88;2.22;;;;;;;;;;5085413;28;20048;-83
2022/10/11 14:05:35;;;;;;;4.40;2.13;;;;;;;;;;5076226;28;20166;-84
2022/10/11 14:08:05;;;;;;;2.28;1.60;;;;;;;;;;5077736;28;20935;-83
2022/10/11 14:10:34;;;;;;;7.22;1.75;;;;;;;;;;5076716;28;20127;-84
2022/10/11 14:13:22;;;;;;;3.72;1.60;;;;;;;;;;5077585;28;20453;-84
2022/10/11 14:16:03;;;;;;;1.48;1.13;;;;;;;;;;5080130;28;20043;-84
2022/10/11 14:18:39;;;;;;;2.13;1.20;;;;;;;;;;5076951;28;20044;-84
2022/10/11 14:21:26;;;;;;;3.00;1.42;;;;;;;;;;5079428;28;20056;-84
2022/10/11 14:23:55;;;;;;;2.40;1.42;;;;;;;;;;5078137;28;20444;-85
2022/10/11 14:26:25;;;;;;;1.75;1.48;;;;;;;;;;5077102;28;20040;-84
2022/10/11 14:28:54;;;;;;;3.65;1.77;;;;;;;;;;5080909;28;20047;-84
2022/10/11 14:31:24;;;;;;;3.65;1.15;;;;;;;;;;5070668;28;20056;-84
2022/10/11 14:33:53;;;;;;;4.53;1.48;;;;;;;;;;5085221;28;20035;-84
2022/10/11 14:36:21;;;;;;;5.28;1.33;;;;;;;;;;5086943;28;20051;-84
2022/10/11 14:38:50;;;;;;;4.38;1.92;;;;;;;;;;5083951;28;20058;-84
2022/10/11 14:41:18;;;;;;;5.38;1.33;;;;;;;;;;5081749;28;20048;-89
2022/10/11 14:43:47;;;;;;;2.45;1.30;;;;;;;;;;5079449;28;20087;-84
2022/10/11 14:46:21;;;;;;;0.85;0.80;;;;;;;;;;5080560;28;20044;-85
2022/10/11 14:48:51;;;;;;;2.78;1.10;;;;;;;;;;5083374;28;20060;-84
2022/10/11 14:51:25;;;;;;;2.53;1.30;;;;;;;;;;5075773;28;20533;-84
2022/10/11 14:53:53;;;;;;;1.90;1.35;;;;;;;;;;5075897;28;20048;-83
2022/10/11 14:56:21;;;;;;;1.15;1.02;;;;;;;;;;5077822;28;20525;-83
2022/10/11 14:58:50;;;;;;;3.35;0.70;;;;;;;;;;5081082;28;20496;-84
2022/10/11 15:01:19;;;;;;;2.53;1.10;;;;;;;;;;5077707;28;20063;-85
2022/10/11 15:03:47;;;;;;;1.55;1.00;;;;;;;;;;5081904;28;20131;-84
2022/10/11 15:06:19;;;;;;;4.82;0.95;;;;;;;;;;5076602;28;20060;-83